Time;durP1;ratioP1;P1;durP2;ratioP2;P2;SDS_P1;SDS_P2;PMS_P1;PMS_P2;Temp;Humidity;BMP_temperature;BMP_pressure;BME280_temperature;BME280_humidity;BME280_pressure;Samples;Min_cycle;Max_cycle;Signal;HPM_P1;HPM_P2
2023/06/16 00:00:59;;;;;;;;;14.00;12.50;;;;;;;;2001839;28;2790900;-86
2023/06/16 00:02:12;;;;;;;;;15.00;14.00;;;;;;;;1962437;28;2806509;-86
2023/06/16 00:03:23;;;;;;;;;13.67;12.33;;;;;;;;1975465;28;2792320;-84
2023/06/16 00:04:37;;;;;;;;;10.00;8.17;;;;;;;;2002590;28;1832134;-84
2023/06/16 00:05:48;;;;;;;;;16.00;14.00;;;;;;;;1964690;28;2807589;-83
2023/06/16 00:07:01;;;;;;;;;15.00;13.67;;;;;;;;1984005;28;2796511;-83
2023/06/16 00:08:12;;;;;;;;;13.00;12.00;;;;;;;;1983882;28;2778386;-83
2023/06/16 00:09:25;;;;;;;;;13.00;13.00;;;;;;;;1972427;28;2804390;-84
2023/06/16 00:10:36;;;;;;;;;14.00;14.00;;;;;;;;1960882;28;2804537;-83
2023/06/16 00:11:47;;;;;;;;;14.00;14.00;;;;;;;;1981418;28;2800362;-83
2023/06/16 00:12:59;;;;;;;;;15.00;13.67;;;;;;;;1981560;28;2804883;-83
2023/06/16 00:14:10;;;;;;;;;16.33;13.33;;;;;;;;1982456;28;2800381;-83
2023/06/16 00:15:20;;;;;;;;;14.50;12.00;;;;;;;;1985016;28;2801321;-85
2023/06/16 00:16:32;;;;;;;;;11.00;10.67;;;;;;;;2001281;28;2807567;-84
2023/06/16 00:17:46;;;;;;;;;15.00;12.00;;;;;;;;1985872;28;2806514;-83
2023/06/16 00:18:59;;;;;;;;;18.00;16.00;;;;;;;;1960456;28;2822177;-83
2023/06/16 00:20:11;;;;;;;;;15.50;14.50;;;;;;;;1954958;28;2811023;-83
2023/06/16 00:21:25;;;;;;;;;16.33;14.33;;;;;;;;1980692;28;3543961;-83
2023/06/16 00:22:36;;;;;;;;;15.00;15.00;;;;;;;;1985797;28;2809698;-83
2023/06/16 00:23:48;;;;;;;;;14.29;13.29;;;;;;;;2006763;28;3528470;-82
2023/06/16 00:25:01;;;;;;;;;13.00;13.00;;;;;;;;2005397;28;2805582;-83
2023/06/16 00:26:12;;;;;;;;;15.00;14.00;;;;;;;;1982258;28;2802375;-86
2023/06/16 00:27:23;;;;;;;;;19.00;13.67;;;;;;;;1995424;28;3545052;-78
2023/06/16 00:28:38;;;;;;;;;14.29;13.71;;;;;;;;2005675;28;3531544;-78
2023/06/16 00:29:49;;;;;;;;;15.00;13.00;;;;;;;;1983885;28;2804431;-84
2023/06/16 00:30:59;;;;;;;;;15.00;14.00;;;;;;;;1977896;28;2804432;-89
2023/06/16 00:32:10;;;;;;;;;14.00;12.50;;;;;;;;1989409;28;2787827;-86
2023/06/16 00:33:23;;;;;;;;;15.71;12.86;;;;;;;;1976275;28;3536728;-86
2023/06/16 00:34:35;;;;;;;;;17.60;14.80;;;;;;;;2006614;28;3538762;-85
2023/06/16 00:35:47;;;;;;;;;15.40;15.00;;;;;;;;2012089;28;3541889;-86
2023/06/16 00:36:59;;;;;;;;;16.80;13.40;;;;;;;;2010986;28;3546088;-86
2023/06/16 00:38:12;;;;;;;;;16.14;14.43;;;;;;;;1998986;28;3541913;-85
2023/06/16 00:39:23;;;;;;;;;16.67;15.00;;;;;;;;1999840;28;3541901;-85
2023/06/16 00:40:35;;;;;;;;;15.40;13.60;;;;;;;;2008495;28;3531936;-86
2023/06/16 00:41:47;;;;;;;;;12.67;11.33;;;;;;;;2008393;28;2804398;-84
2023/06/16 00:43:02;;;;;;;;;14.29;12.43;;;;;;;;1985279;28;3534566;-84
2023/06/16 00:44:12;;;;;;;;;14.00;14.00;;;;;;;;1988667;28;2799181;-83
2023/06/16 00:45:25;;;;;;;;;15.86;14.14;;;;;;;;1983842;28;3532601;-84
2023/06/16 00:46:37;;;;;;;;;17.80;13.60;;;;;;;;2006009;28;3538748;-84
2023/06/16 00:47:50;;;;;;;;;18.00;16.00;;;;;;;;2004884;28;3553390;-83
2023/06/16 00:49:02;;;;;;;;;15.00;15.00;;;;;;;;1978181;28;2803837;-83
2023/06/16 00:50:13;;;;;;;;;13.33;13.33;;;;;;;;1979397;28;2804592;-83
2023/06/16 00:51:27;;;;;;;;;13.50;13.50;;;;;;;;1975853;28;2804438;-83
2023/06/16 00:52:38;;;;;;;;;15.67;14.33;;;;;;;;1958643;28;3540915;-84
2023/06/16 00:53:51;;;;;;;;;13.60;13.60;;;;;;;;2004032;28;3530527;-84
2023/06/16 00:55:02;;;;;;;;;15.40;15.40;;;;;;;;1997339;28;3552337;-84
2023/06/16 00:56:16;;;;;;;;;18.00;14.80;;;;;;;;1995620;28;3531518;-84
2023/06/16 00:57:26;;;;;;;;;14.50;13.50;;;;;;;;1983704;28;2799210;-84
2023/06/16 00:58:38;;;;;;;;;17.20;15.00;;;;;;;;1987625;28;3544004;-84
2023/06/16 00:59:50;;;;;;;;;13.71;13.71;;;;;;;;1999067;28;2805487;-84
2023/06/16 01:01:03;;;;;;;;;13.67;12.67;;;;;;;;1977794;28;2788845;-84
2023/06/16 01:02:15;;;;;;;;;15.33;13.33;;;;;;;;1972429;28;2804525;-85
2023/06/16 01:03:26;;;;;;;;;15.00;15.00;;;;;;;;1969970;28;2806574;-85
2023/06/16 01:04:37;;;;;;;;;12.00;11.00;;;;;;;;1977204;28;2797517;-84
2023/06/16 01:05:48;;;;;;;;;14.00;14.00;;;;;;;;1962614;28;2791939;-85
2023/06/16 01:07:14;;;;;;;;;13.00;11.50;;;;;;;;1980109;28;2790881;-85
2023/06/16 01:08:36;;;;;;;;;13.50;13.00;;;;;;;;1964842;28;2808585;-86
2023/06/16 01:09:53;;;;;;;;;15.00;13.50;;;;;;;;1986954;28;2792991;-85
2023/06/16 01:11:10;;;;;;;;;16.00;12.00;;;;;;;;1985103;28;2807535;-86
2023/06/16 01:12:26;;;;;;;;;11.00;9.00;;;;;;;;1962401;28;2772132;-86
2023/06/16 01:13:45;;;;;;;;;12.50;12.50;;;;;;;;1959559;28;2794033;-84
2023/06/16 01:14:59;;;;;;;;;12.00;12.00;;;;;;;;1984981;28;2794034;-83
2023/06/16 01:16:10;;;;;;;;;13.50;12.50;;;;;;;;1965638;28;2801305;-83
2023/06/16 01:17:23;;;;;;;;;15.00;14.67;;;;;;;;1983763;28;2788842;-82
2023/06/16 01:18:34;;;;;;;;;14.50;13.00;;;;;;;;1984111;28;2807539;-82
2023/06/16 01:19:49;;;;;;;;;16.00;15.50;;;;;;;;1978779;28;2820066;-79
2023/06/16 01:21:19;;;;;;;;;14.00;14.00;;;;;;;;1957692;28;3533560;-79
2023/06/16 01:22:35;;;;;;;;;16.50;14.00;;;;;;;;1979028;28;2807575;-80
2023/06/16 01:24:04;;;;;;;;;15.50;15.00;;;;;;;;1984310;28;2814862;-79
2023/06/16 01:25:15;;;;;;;;;14.50;13.50;;;;;;;;1981716;28;2794033;-80
2023/06/16 01:26:28;;;;;;;;;13.00;13.00;;;;;;;;1973688;28;2797126;-80
2023/06/16 01:27:47;;;;;;;;;14.00;13.00;;;;;;;;1965875;28;2797123;-79
2023/06/16 01:29:01;;;;;;;;;14.00;14.00;;;;;;;;1961896;28;2807571;-83
2023/06/16 01:30:16;;;;;;;;;16.33;14.33;;;;;;;;1961333;28;2809758;-82
2023/06/16 01:31:28;;;;;;;;;13.00;13.00;;;;;;;;1984857;28;2798220;-82
2023/06/16 01:32:40;;;;;;;;;16.67;15.00;;;;;;;;1957908;28;2810712;-82
2023/06/16 01:33:51;;;;;;;;;11.67;10.33;;;;;;;;1985048;28;2797166;-82
2023/06/16 01:35:03;;;;;;;;;16.67;14.67;;;;;;;;1984684;28;2819084;-82
2023/06/16 01:36:15;;;;;;;;;16.50;15.50;;;;;;;;1987343;28;2827353;-82
2023/06/16 01:37:25;;;;;;;;;12.50;11.00;;;;;;;;1965457;28;2790920;-82
2023/06/16 01:38:36;;;;;;;;;13.00;13.00;;;;;;;;1997786;28;2794384;-82
2023/06/16 01:39:48;;;;;;;;;13.00;13.00;;;;;;;;1970268;28;2782922;-82
2023/06/16 01:41:00;;;;;;;;;14.67;13.33;;;;;;;;1953618;28;2800374;-82
2023/06/16 01:42:12;;;;;;;;;14.50;13.00;;;;;;;;1987930;28;2797150;-82
2023/06/16 01:43:22;;;;;;;;;14.00;14.00;;;;;;;;1987893;28;2797627;-82
2023/06/16 01:44:34;;;;;;;;;11.00;11.00;;;;;;;;1999964;28;2788834;-82
2023/06/16 01:45:45;;;;;;;;;15.50;13.50;;;;;;;;1955431;28;2802306;-82
2023/06/16 01:46:56;;;;;;;;;15.50;14.00;;;;;;;;1964527;28;2802335;-82
2023/06/16 01:48:07;;;;;;;;;17.40;13.20;;;;;;;;1977337;28;3539812;-82
2023/06/16 01:49:19;;;;;;;;;14.67;13.00;;;;;;;;2001394;28;2801387;-82
2023/06/16 01:50:30;;;;;;;;;15.00;15.00;;;;;;;;1984109;28;2814865;-82
2023/06/16 01:51:41;;;;;;;;;14.50;14.50;;;;;;;;1990166;28;2808971;-84
2023/06/16 01:52:52;;;;;;;;;15.00;11.40;;;;;;;;1974637;28;2790857;-83
2023/06/16 01:54:02;;;;;;;;;11.00;10.00;;;;;;;;1988934;28;2774175;-83
2023/06/16 01:55:15;;;;;;;;;13.86;13.86;;;;;;;;1984937;28;2805435;-84
2023/06/16 01:56:26;;;;;;;;;16.00;13.00;;;;;;;;1982615;28;2807164;-86
2023/06/16 01:57:38;;;;;;;;;16.00;14.33;;;;;;;;1959724;28;3550198;-86
2023/06/16 01:58:49;;;;;;;;;14.50;13.50;;;;;;;;1975987;28;2805492;-86
2023/06/16 02:00:08;;;;;;;;;14.00;13.20;;;;;;;;1947480;28;3535611;-87
2023/06/16 02:01:23;;;;;;;;;13.00;13.00;;;;;;;;1968409;28;2804458;-86
2023/06/16 02:02:36;;;;;;;;;15.67;13.00;;;;;;;;1948159;28;3544020;-86
2023/06/16 02:03:54;;;;;;;;;13.67;12.00;;;;;;;;1977031;28;2797209;-87
2023/06/16 02:05:07;;;;;;;;;13.00;13.00;;;;;;;;1976868;28;2804419;-86
2023/06/16 02:06:27;;;;;;;;;12.00;12.00;;;;;;;;1968410;28;2789342;-83
2023/06/16 02:07:39;;;;;;;;;12.00;12.00;;;;;;;;1952176;28;2800288;-83
2023/06/16 02:08:52;;;;;;;;;14.00;12.00;;;;;;;;1987638;28;2807543;-83
2023/06/16 02:10:03;;;;;;;;;14.00;12.00;;;;;;;;1984647;28;2799214;-86
2023/06/16 02:11:14;;;;;;;;;14.00;13.00;;;;;;;;1954922;28;2808558;-86
2023/06/16 02:12:25;;;;;;;;;13.00;13.00;;;;;;;;1956741;28;2802300;-88
2023/06/16 02:13:36;;;;;;;;;14.00;14.00;;;;;;;;1975818;28;2804445;-87
2023/06/16 02:14:48;;;;;;;;;14.00;13.33;;;;;;;;1963518;28;3532494;-89
2023/06/16 02:15:59;;;;;;;;;14.00;10.50;;;;;;;;1987817;28;2789874;-79
2023/06/16 02:17:12;;;;;;;;;16.00;14.40;;;;;;;;1966480;28;2815449;-78
2023/06/16 02:18:24;;;;;;;;;15.00;14.00;;;;;;;;1988146;28;2801261;-86
2023/06/16 02:19:35;;;;;;;;;14.00;14.00;;;;;;;;1959149;28;2789843;-83
2023/06/16 02:20:46;;;;;;;;;15.67;14.33;;;;;;;;1977746;28;2812815;-80
2023/06/16 02:22:01;;;;;;;;;12.57;12.29;;;;;;;;2012573;28;1831605;-80
2023/06/16 02:23:11;;;;;;;;;14.50;12.50;;;;;;;;1980421;28;2797154;-80
2023/06/16 02:24:22;;;;;;;;;6.33;5.00;;;;;;;;2003374;28;2737766;-80
2023/06/16 02:25:34;;;;;;;;;13.60;11.60;;;;;;;;2012738;28;3531455;-83
2023/06/16 02:26:46;;;;;;;;;13.71;12.14;;;;;;;;2007744;28;2791946;-83
2023/06/16 02:27:56;;;;;;;;;16.00;11.00;;;;;;;;1988004;28;2789884;-79
2023/06/16 02:29:09;;;;;;;;;13.71;13.71;;;;;;;;2005998;28;3537758;-79
2023/06/16 02:30:22;;;;;;;;;13.71;13.14;;;;;;;;2006662;28;2800352;-79
2023/06/16 02:31:33;;;;;;;;;12.33;10.33;;;;;;;;1983843;28;2791915;-79
2023/06/16 02:32:44;;;;;;;;;14.00;11.50;;;;;;;;1987048;28;2792964;-79
2023/06/16 02:33:56;;;;;;;;;18.57;14.14;;;;;;;;2005200;28;3535666;-79
2023/06/16 02:35:09;;;;;;;;;12.71;12.71;;;;;;;;2004834;28;3533584;-78
2023/06/16 02:36:21;;;;;;;;;14.00;14.00;;;;;;;;2010454;28;3534569;-78
2023/06/16 02:37:35;;;;;;;;;12.50;12.00;;;;;;;;1996393;28;2791926;-78
2023/06/16 02:38:46;;;;;;;;;16.00;12.50;;;;;;;;1960386;28;2806536;-78
2023/06/16 02:39:57;;;;;;;;;13.25;13.00;;;;;;;;1978408;28;2797123;-78
2023/06/16 02:41:08;;;;;;;;;14.50;9.00;;;;;;;;1991954;28;1820071;-78
2023/06/16 02:42:19;;;;;;;;;17.67;12.67;;;;;;;;1987938;28;3546074;-78
2023/06/16 02:43:32;;;;;;;;;14.14;13.43;;;;;;;;2005107;28;2801394;-78
2023/06/16 02:44:42;;;;;;;;;12.00;12.00;;;;;;;;1966189;28;2790902;-78
2023/06/16 02:45:55;;;;;;;;;15.86;15.00;;;;;;;;1977699;28;3518938;-83
2023/06/16 02:47:08;;;;;;;;;14.57;13.57;;;;;;;;2005381;28;3508605;-82
2023/06/16 02:48:19;;;;;;;;;17.00;14.60;;;;;;;;2009400;28;3543987;-81
2023/06/16 02:49:32;;;;;;;;;14.57;14.43;;;;;;;;2006196;28;3535646;-81
2023/06/16 02:50:43;;;;;;;;;12.25;8.75;;;;;;;;2013579;28;1821620;-81
2023/06/16 02:51:54;;;;;;;;;14.20;14.20;;;;;;;;1990732;28;2799284;-81
2023/06/16 02:53:06;;;;;;;;;14.00;13.00;;;;;;;;1977022;28;2799294;-81
2023/06/16 02:54:16;;;;;;;;;17.00;16.00;;;;;;;;1985350;28;2825652;-81
2023/06/16 02:55:28;;;;;;;;;16.40;15.40;;;;;;;;1986128;28;2808689;-81
2023/06/16 02:56:38;;;;;;;;;15.00;14.00;;;;;;;;1987814;28;2794013;-81
2023/06/16 02:57:51;;;;;;;;;14.33;14.00;;;;;;;;1965648;28;2814846;-81
2023/06/16 02:59:02;;;;;;;;;14.67;14.67;;;;;;;;1981165;28;3530426;-81
2023/06/16 03:00:14;;;;;;;;;14.40;14.40;;;;;;;;2008825;28;3530392;-81
2023/06/16 03:01:29;;;;;;;;;14.00;14.00;;;;;;;;1993628;28;3525239;-81
2023/06/16 03:02:40;;;;;;;;;14.33;14.00;;;;;;;;1976772;28;2800400;-81
2023/06/16 03:03:51;;;;;;;;;16.00;14.00;;;;;;;;1978428;28;2811744;-81
2023/06/16 03:05:03;;;;;;;;;17.00;15.00;;;;;;;;1976702;28;3544004;-81
2023/06/16 03:06:16;;;;;;;;;20.00;17.67;;;;;;;;1980801;28;3555430;-81
2023/06/16 03:07:31;;;;;;;;;13.50;13.00;;;;;;;;1978957;28;2796117;-83
2023/06/16 03:08:41;;;;;;;;;15.00;15.00;;;;;;;;1979764;28;2796133;-83
2023/06/16 03:09:53;;;;;;;;;18.20;15.80;;;;;;;;2002725;28;3564816;-82
2023/06/16 03:11:06;;;;;;;;;18.86;15.86;;;;;;;;2007015;28;3556483;-82
2023/06/16 03:12:18;;;;;;;;;16.29;14.57;;;;;;;;2006096;28;2813785;-82
2023/06/16 03:13:29;;;;;;;;;15.00;15.00;;;;;;;;1986429;28;2796491;-81
2023/06/16 03:14:41;;;;;;;;;18.29;16.57;;;;;;;;2007900;28;3575255;-81
2023/06/16 03:15:56;;;;;;;;;16.71;16.57;;;;;;;;1980671;28;3556482;-81
2023/06/16 03:17:07;;;;;;;;;21.00;17.50;;;;;;;;1962464;28;2835675;-81
2023/06/16 03:18:18;;;;;;;;;15.67;15.67;;;;;;;;1963420;28;3551279;-81
2023/06/16 03:19:30;;;;;;;;;16.60;15.80;;;;;;;;2005686;28;3549686;-81
2023/06/16 03:20:45;;;;;;;;;18.20;16.00;;;;;;;;2011344;28;3568937;-81
2023/06/16 03:21:55;;;;;;;;;19.50;17.00;;;;;;;;1979064;28;2837751;-81
2023/06/16 03:23:08;;;;;;;;;18.86;15.57;;;;;;;;1983027;28;3545537;-82
2023/06/16 03:24:21;;;;;;;;;17.40;15.60;;;;;;;;2011652;28;3546065;-81
2023/06/16 03:25:32;;;;;;;;;15.20;15.20;;;;;;;;1989162;28;3537713;-81
2023/06/16 03:26:47;;;;;;;;;15.80;14.80;;;;;;;;2002199;28;3536652;-81
2023/06/16 03:27:58;;;;;;;;;15.00;13.50;;;;;;;;1985992;28;2810647;-81
2023/06/16 03:29:12;;;;;;;;;18.29;15.71;;;;;;;;1981551;28;3547117;-81
2023/06/16 03:30:23;;;;;;;;;20.67;17.00;;;;;;;;1960778;28;3570017;-85
2023/06/16 03:31:35;;;;;;;;;18.40;16.80;;;;;;;;2011114;28;3560600;-85
2023/06/16 03:32:47;;;;;;;;;17.33;14.00;;;;;;;;2001631;28;3546106;-79
2023/06/16 03:33:59;;;;;;;;;16.71;14.57;;;;;;;;2004146;28;3544032;-81
2023/06/16 03:35:12;;;;;;;;;15.80;14.60;;;;;;;;2011966;28;3529365;-79
2023/06/16 03:36:24;;;;;;;;;15.60;14.40;;;;;;;;1992166;28;3540166;-79
2023/06/16 03:37:35;;;;;;;;;17.00;12.67;;;;;;;;1987037;28;2811666;-79
2023/06/16 03:38:46;;;;;;;;;13.00;13.00;;;;;;;;1986824;28;2799218;-81
2023/06/16 03:39:57;;;;;;;;;15.00;14.00;;;;;;;;1988637;28;2806876;-81
2023/06/16 03:41:08;;;;;;;;;16.60;16.20;;;;;;;;1986927;28;3566887;-81
2023/06/16 03:42:20;;;;;;;;;17.40;16.20;;;;;;;;2011337;28;3548175;-79
2023/06/16 03:43:33;;;;;;;;;17.14;16.43;;;;;;;;2002593;28;3560650;-79
2023/06/16 03:44:45;;;;;;;;;20.40;18.00;;;;;;;;2002223;28;3566849;-82
2023/06/16 03:45:57;;;;;;;;;19.20;18.80;;;;;;;;1970676;28;2830435;-81
2023/06/16 03:47:07;;;;;;;;;20.00;18.00;;;;;;;;1985875;28;2824212;-80
2023/06/16 03:48:19;;;;;;;;;21.60;19.60;;;;;;;;1988748;28;3578333;-79
2023/06/16 03:49:31;;;;;;;;;16.80;16.80;;;;;;;;1969185;28;3560650;-81
2023/06/16 03:50:43;;;;;;;;;17.00;16.67;;;;;;;;1990491;28;3556471;-82
2023/06/16 03:51:56;;;;;;;;;15.40;13.00;;;;;;;;2010242;28;3534594;-81
2023/06/16 03:53:07;;;;;;;;;14.50;14.50;;;;;;;;1981512;28;2797977;-81
2023/06/16 03:54:19;;;;;;;;;16.00;14.60;;;;;;;;1989402;28;3541939;-82
2023/06/16 03:55:30;;;;;;;;;16.00;15.33;;;;;;;;1998143;28;3549224;-81
2023/06/16 03:56:43;;;;;;;;;16.60;15.00;;;;;;;;2012257;28;3541897;-82
2023/06/16 03:57:54;;;;;;;;;16.60;14.60;;;;;;;;2003207;28;3534569;-80
2023/06/16 03:59:08;;;;;;;;;13.86;13.71;;;;;;;;2004180;28;2800433;-80
2023/06/16 04:00:19;;;;;;;;;14.50;12.00;;;;;;;;1985493;28;2801377;-80
2023/06/16 04:01:30;;;;;;;;;14.00;13.50;;;;;;;;1997726;28;2796124;-80
2023/06/16 04:02:42;;;;;;;;;18.33;14.00;;;;;;;;1963738;28;2810649;-80
2023/06/16 04:03:53;;;;;;;;;15.67;14.00;;;;;;;;1977170;28;3533555;-82
2023/06/16 04:05:06;;;;;;;;;16.20;14.80;;;;;;;;2010567;28;3531429;-82
2023/06/16 04:06:17;;;;;;;;;15.67;14.00;;;;;;;;1987130;28;2805925;-81
2023/06/16 04:07:27;;;;;;;;;14.50;14.50;;;;;;;;1980909;28;2804240;-81
2023/06/16 04:08:40;;;;;;;;;16.33;15.67;;;;;;;;1968956;28;3548138;-81
2023/06/16 04:09:52;;;;;;;;;16.00;13.20;;;;;;;;1987462;28;2806462;-82
2023/06/16 04:11:04;;;;;;;;;15.40;14.20;;;;;;;;1984582;28;3526229;-82
2023/06/16 04:12:16;;;;;;;;;14.00;14.00;;;;;;;;2000043;28;3520463;-81
2023/06/16 04:13:30;;;;;;;;;15.57;13.57;;;;;;;;2004319;28;3536724;-84
2023/06/16 04:14:41;;;;;;;;;14.00;14.00;;;;;;;;1985236;28;2800315;-84
2023/06/16 04:15:53;;;;;;;;;14.43;12.86;;;;;;;;2005399;28;3524203;-84
2023/06/16 04:17:06;;;;;;;;;14.57;13.57;;;;;;;;2005821;28;3527354;-83
2023/06/16 04:18:18;;;;;;;;;16.00;15.00;;;;;;;;1993931;28;2810788;-89
2023/06/16 04:19:29;;;;;;;;;13.00;12.67;;;;;;;;1969478;28;2808609;-89
2023/06/16 04:20:39;;;;;;;;;13.00;13.00;;;;;;;;1968357;28;2808657;-85
2023/06/16 04:21:51;;;;;;;;;11.25;9.00;;;;;;;;1966457;28;1823186;-78
2023/06/16 04:23:02;;;;;;;;;14.33;12.67;;;;;;;;1979301;28;3537698;-76
2023/06/16 04:24:15;;;;;;;;;14.29;13.86;;;;;;;;2003961;28;3523159;-78
2023/06/16 04:25:26;;;;;;;;;8.00;7.00;;;;;;;;2009635;28;1816944;-78
2023/06/16 04:26:41;;;;;;;;;15.80;13.20;;;;;;;;1990115;28;3521040;-78
2023/06/16 04:27:51;;;;;;;;;16.00;15.00;;;;;;;;1977209;28;2800243;-77
2023/06/16 04:29:05;;;;;;;;;15.86;12.86;;;;;;;;1977122;28;2811744;-77
2023/06/16 04:30:22;;;;;;;;;15.00;14.33;;;;;;;;1978188;28;2802351;-77
2023/06/16 04:31:35;;;;;;;;;13.00;13.00;;;;;;;;1976190;28;2800331;-77
2023/06/16 04:32:45;;;;;;;;;13.00;11.50;;;;;;;;1976778;28;2787741;-76
2023/06/16 04:33:58;;;;;;;;;14.29;12.29;;;;;;;;2004377;28;3530449;-77
2023/06/16 04:35:09;;;;;;;;;13.00;10.50;;;;;;;;1995415;28;2789863;-77
2023/06/16 04:36:22;;;;;;;;;13.86;13.86;;;;;;;;1984306;28;3525222;-78
2023/06/16 04:37:33;;;;;;;;;13.00;13.00;;;;;;;;1987966;28;2800223;-77
2023/06/16 04:38:45;;;;;;;;;13.60;12.60;;;;;;;;1989247;28;3535622;-81
2023/06/16 04:39:57;;;;;;;;;15.14;14.86;;;;;;;;2002041;28;3534074;-78
2023/06/16 04:41:10;;;;;;;;;15.29;12.57;;;;;;;;2005567;28;2806486;-79
2023/06/16 04:42:20;;;;;;;;;15.00;13.50;;;;;;;;1974933;28;2781545;-78
2023/06/16 04:43:33;;;;;;;;;15.14;14.43;;;;;;;;1981420;28;2809686;-78
2023/06/16 04:44:44;;;;;;;;;15.00;14.00;;;;;;;;1987080;28;2799174;-78
2023/06/16 04:45:58;;;;;;;;;17.00;15.00;;;;;;;;1980499;28;3549215;-77
2023/06/16 04:47:09;;;;;;;;;15.33;14.67;;;;;;;;1982796;28;3531513;-76
2023/06/16 04:48:20;;;;;;;;;15.00;13.00;;;;;;;;1994635;28;2799246;-76
2023/06/16 04:49:32;;;;;;;;;16.40;14.60;;;;;;;;1972356;28;2811094;-76
2023/06/16 04:50:43;;;;;;;;;12.50;12.00;;;;;;;;1974649;28;2799218;-79
2023/06/16 04:51:55;;;;;;;;;15.80;15.40;;;;;;;;1987711;28;2801362;-76
2023/06/16 04:53:06;;;;;;;;;15.00;14.00;;;;;;;;1967099;28;3533575;-74
2023/06/16 04:54:19;;;;;;;;;11.00;11.00;;;;;;;;1991731;28;2786030;-74
2023/06/16 04:55:30;;;;;;;;;17.67;15.67;;;;;;;;1962439;28;3558555;-74
2023/06/16 04:56:42;;;;;;;;;12.33;12.33;;;;;;;;1993253;28;2798160;-74
2023/06/16 04:57:55;;;;;;;;;16.86;14.57;;;;;;;;1972753;28;3543932;-76
2023/06/16 04:59:08;;;;;;;;;19.43;16.00;;;;;;;;1967072;28;3555446;-75
2023/06/16 05:00:20;;;;;;;;;14.43;14.43;;;;;;;;1997170;28;3537814;-75
2023/06/16 05:01:32;;;;;;;;;14.60;14.60;;;;;;;;1999214;28;3527322;-75
2023/06/16 05:02:45;;;;;;;;;16.29;13.86;;;;;;;;2000692;28;3541957;-75
2023/06/16 05:03:58;;;;;;;;;13.29;13.00;;;;;;;;2000771;28;2800252;-75
2023/06/16 05:05:08;;;;;;;;;11.50;11.50;;;;;;;;1972240;28;2801872;-75
2023/06/16 05:06:21;;;;;;;;;16.43;13.43;;;;;;;;1992895;28;3523170;-75
2023/06/16 05:07:33;;;;;;;;;15.20;12.60;;;;;;;;2010945;28;3533540;-75
2023/06/16 05:08:45;;;;;;;;;15.80;13.80;;;;;;;;2010339;28;3539822;-75
2023/06/16 05:09:57;;;;;;;;;15.00;14.40;;;;;;;;2008468;28;3537718;-75
2023/06/16 05:11:08;;;;;;;;;19.80;16.20;;;;;;;;1982337;28;3567934;-75
2023/06/16 05:12:20;;;;;;;;;15.20;15.20;;;;;;;;2002790;28;3526325;-75
2023/06/16 05:13:33;;;;;;;;;17.20;16.40;;;;;;;;1997533;28;3555442;-75
2023/06/16 05:14:44;;;;;;;;;16.80;15.60;;;;;;;;1990784;28;3558565;-75
2023/06/16 05:15:56;;;;;;;;;15.80;13.40;;;;;;;;2012715;28;3532569;-75
2023/06/16 05:17:09;;;;;;;;;15.43;12.57;;;;;;;;1997776;28;3517287;-75
2023/06/16 05:18:22;;;;;;;;;15.83;13.17;;;;;;;;2015014;28;2825632;-75
2023/06/16 05:19:33;;;;;;;;;17.00;15.80;;;;;;;;1989278;28;3554432;-75
2023/06/16 05:20:45;;;;;;;;;17.00;13.00;;;;;;;;2009478;28;3530443;-75
2023/06/16 05:21:59;;;;;;;;;15.86;15.71;;;;;;;;2004872;28;3548166;-75
2023/06/16 05:23:09;;;;;;;;;14.00;13.00;;;;;;;;1989369;28;2794137;-75
2023/06/16 05:24:22;;;;;;;;;15.57;15.14;;;;;;;;1980325;28;3530422;-75
2023/06/16 05:25:34;;;;;;;;;16.40;13.80;;;;;;;;2009071;28;3533556;-75
2023/06/16 05:26:46;;;;;;;;;15.60;13.00;;;;;;;;1997376;28;3538760;-75
2023/06/16 05:27:58;;;;;;;;;16.14;15.29;;;;;;;;1999155;28;3535650;-75
2023/06/16 05:29:11;;;;;;;;;16.43;14.86;;;;;;;;2005913;28;3541921;-75
2023/06/16 05:30:22;;;;;;;;;22.00;18.40;;;;;;;;1985434;28;2841908;-80
2023/06/16 05:31:34;;;;;;;;;15.50;14.75;;;;;;;;2003154;28;2800259;-75
2023/06/16 05:32:45;;;;;;;;;14.00;13.50;;;;;;;;1958302;28;2792561;-75
2023/06/16 05:33:57;;;;;;;;;14.00;10.83;;;;;;;;1982255;28;2796480;-75
2023/06/16 05:35:09;;;;;;;;;16.00;14.40;;;;;;;;1989272;28;3541857;-75
2023/06/16 05:36:24;;;;;;;;;16.43;15.14;;;;;;;;1997116;28;3541964;-75
2023/06/16 05:37:34;;;;;;;;;14.50;12.00;;;;;;;;1974946;28;2808603;-75
2023/06/16 05:38:47;;;;;;;;;18.29;16.43;;;;;;;;1975087;28;3559716;-75
2023/06/16 05:39:59;;;;;;;;;14.80;14.00;;;;;;;;1991381;28;3526631;-75
2023/06/16 05:41:11;;;;;;;;;15.67;13.00;;;;;;;;2000080;28;2796256;-75
2023/06/16 05:42:21;;;;;;;;;9.50;9.50;;;;;;;;1984142;28;2761788;-76
2023/06/16 05:43:33;;;;;;;;;16.40;14.60;;;;;;;;1998142;28;2799321;-75
2023/06/16 05:44:44;;;;;;;;;16.00;14.67;;;;;;;;1975588;28;3548169;-75
2023/06/16 05:45:56;;;;;;;;;13.33;12.33;;;;;;;;1995571;28;3531504;-75
2023/06/16 05:47:08;;;;;;;;;13.80;13.80;;;;;;;;2008245;28;3530403;-75
2023/06/16 05:48:20;;;;;;;;;18.33;13.67;;;;;;;;1987689;28;2813878;-75
2023/06/16 05:49:30;;;;;;;;;15.00;14.00;;;;;;;;1982709;28;2796113;-75
2023/06/16 05:50:41;;;;;;;;;15.50;12.00;;;;;;;;1968233;28;2800244;-74
2023/06/16 05:51:52;;;;;;;;;14.50;13.50;;;;;;;;1969613;28;2799293;-74
2023/06/16 05:53:05;;;;;;;;;17.14;14.57;;;;;;;;1971946;28;3527334;-74
2023/06/16 05:54:16;;;;;;;;;13.50;13.00;;;;;;;;1983796;28;2800260;-74
2023/06/16 05:55:28;;;;;;;;;15.00;12.60;;;;;;;;1978131;28;2799263;-74
2023/06/16 05:56:38;;;;;;;;;13.50;13.00;;;;;;;;1974990;28;2803381;-74
2023/06/16 05:57:51;;;;;;;;;20.00;14.86;;;;;;;;1971083;28;3546079;-74
2023/06/16 05:59:03;;;;;;;;;17.60;15.60;;;;;;;;1997175;28;3558615;-73
2023/06/16 06:00:16;;;;;;;;;14.86;14.43;;;;;;;;2000190;28;3529390;-74
2023/06/16 06:01:27;;;;;;;;;16.20;14.40;;;;;;;;1988212;28;3527289;-74
2023/06/16 06:02:40;;;;;;;;;14.00;12.14;;;;;;;;1999368;28;3524209;-74
2023/06/16 06:03:53;;;;;;;;;14.14;14.14;;;;;;;;1998173;28;3525314;-74
2023/06/16 06:05:05;;;;;;;;;15.00;13.20;;;;;;;;1995958;28;3525239;-74
2023/06/16 06:06:16;;;;;;;;;15.33;15.00;;;;;;;;1982544;28;2803478;-74
2023/06/16 06:07:27;;;;;;;;;14.50;13.00;;;;;;;;1970349;28;2796097;-74
2023/06/16 06:08:40;;;;;;;;;15.86;15.00;;;;;;;;1974328;28;3552290;-74
2023/06/16 06:09:52;;;;;;;;;17.60;15.40;;;;;;;;1997078;28;3540847;-74
2023/06/16 06:11:06;;;;;;;;;16.29;15.71;;;;;;;;1995528;28;3530499;-74
2023/06/16 06:12:17;;;;;;;;;15.00;14.00;;;;;;;;1969710;28;3535643;-74
2023/06/16 06:13:29;;;;;;;;;17.40;15.60;;;;;;;;2001500;28;3556488;-74
2023/06/16 06:14:41;;;;;;;;;14.67;14.67;;;;;;;;1994703;28;2805432;-74
2023/06/16 06:15:53;;;;;;;;;16.40;14.80;;;;;;;;1972143;28;3532522;-74
2023/06/16 06:17:05;;;;;;;;;12.00;11.20;;;;;;;;1999162;28;3523120;-74
2023/06/16 06:18:17;;;;;;;;;13.00;13.00;;;;;;;;1992775;28;3535663;-74
2023/06/16 06:19:29;;;;;;;;;16.60;15.00;;;;;;;;2000836;28;3542919;-74
2023/06/16 06:20:43;;;;;;;;;14.67;14.00;;;;;;;;1983537;28;2805495;-74
2023/06/16 06:21:53;;;;;;;;;14.50;13.50;;;;;;;;1971138;28;2808640;-74
2023/06/16 06:23:05;;;;;;;;;16.20;16.20;;;;;;;;2000985;28;3549207;-74
2023/06/16 06:24:16;;;;;;;;;11.50;11.50;;;;;;;;1980001;28;2782059;-74
2023/06/16 06:25:28;;;;;;;;;16.20;13.20;;;;;;;;1974990;28;2814911;-74
2023/06/16 06:26:39;;;;;;;;;16.67;16.33;;;;;;;;1978803;28;2825220;-74
2023/06/16 06:27:49;;;;;;;;;17.00;15.00;;;;;;;;1973479;28;2801746;-74
2023/06/16 06:29:01;;;;;;;;;17.20;16.00;;;;;;;;1976940;28;3550214;-74
2023/06/16 06:30:13;;;;;;;;;13.60;13.60;;;;;;;;2004998;28;3528410;-74
2023/06/16 06:31:25;;;;;;;;;13.40;12.80;;;;;;;;1989621;28;3532527;-73
2023/06/16 06:32:38;;;;;;;;;16.80;14.20;;;;;;;;2003512;28;3541861;-73
2023/06/16 06:33:49;;;;;;;;;15.33;14.67;;;;;;;;1978682;28;2806473;-73
2023/06/16 06:35:01;;;;;;;;;16.00;15.00;;;;;;;;1979335;28;2809679;-73
2023/06/16 06:36:11;;;;;;;;;13.00;13.00;;;;;;;;1972859;28;2806490;-73
2023/06/16 06:37:30;;;;;;;;;16.14;14.86;;;;;;;;1977219;28;3541948;-73
2023/06/16 06:38:41;;;;;;;;;14.67;14.67;;;;;;;;1976474;28;3531537;-73
2023/06/16 06:39:53;;;;;;;;;14.00;13.20;;;;;;;;1998143;28;3513781;-73
2023/06/16 06:41:06;;;;;;;;;13.29;12.43;;;;;;;;1992015;28;2800862;-73
2023/06/16 06:42:16;;;;;;;;;20.00;17.00;;;;;;;;1973510;28;2837838;-73
2023/06/16 06:43:28;;;;;;;;;14.80;14.80;;;;;;;;1963695;28;2806581;-76
2023/06/16 06:44:38;;;;;;;;;13.00;12.00;;;;;;;;1969135;28;2789174;-74
2023/06/16 06:45:50;;;;;;;;;17.00;15.40;;;;;;;;1976381;28;3546047;-73
2023/06/16 06:47:02;;;;;;;;;17.00;16.40;;;;;;;;1997799;28;3569993;-73
2023/06/16 06:48:14;;;;;;;;;17.40;17.40;;;;;;;;1973316;28;3563206;-73
2023/06/16 06:49:27;;;;;;;;;14.86;13.71;;;;;;;;1998433;28;3531476;-73